createdAt,value
2018-09-15T00:00:03.239Z,0
2018-09-15T00:05:02.841Z,0
2018-09-15T00:10:02.547Z,0
2018-09-15T00:15:03.313Z,0
2018-09-15T00:20:02.899Z,0
2018-09-15T00:25:02.658Z,0
2018-09-15T00:30:03.236Z,0
2018-09-15T00:35:02.861Z,0
2018-09-15T00:40:02.575Z,0
2018-09-15T00:45:03.335Z,0
2018-09-15T00:50:02.826Z,0
2018-09-15T00:55:02.466Z,0
2018-09-15T01:00:03.226Z,0
2018-09-15T01:05:03.081Z,0
2018-09-15T01:10:02.754Z,0
2018-09-15T01:15:02.386Z,0
2018-09-15T01:20:03.272Z,0
2018-09-15T01:25:03.305Z,0
2018-09-15T01:30:02.953Z,0
2018-09-15T01:35:02.596Z,0
2018-09-15T01:40:03.245Z,0
2018-09-15T01:45:02.885Z,0
2018-09-15T01:50:02.537Z,0
2018-09-15T01:55:03.105Z,0
2018-09-15T02:00:02.760Z,0
2018-09-15T02:05:03.343Z,0
2018-09-15T02:10:03.034Z,0
2018-09-15T02:15:02.778Z,0
2018-09-15T02:20:02.452Z,0
2018-09-15T02:25:03.128Z,0
2018-09-15T02:30:02.813Z,0
2018-09-15T02:35:02.368Z,0
2018-09-15T02:40:03.141Z,0
2018-09-15T02:45:02.805Z,0
2018-09-15T02:50:02.538Z,0
2018-09-15T02:55:03.160Z,0
2018-09-15T03:00:02.730Z,0
2018-09-15T03:05:03.603Z,0
2018-09-15T03:10:03.276Z,0
2018-09-15T03:15:02.862Z,0
2018-09-15T03:20:02.577Z,0
2018-09-15T03:25:03.212Z,0
2018-09-15T03:30:02.829Z,0
2018-09-15T03:35:02.508Z,0
2018-09-15T03:40:03.478Z,0
2018-09-15T03:45:02.974Z,0
2018-09-15T03:50:02.723Z,0
2018-09-15T03:55:03.419Z,0
2018-09-15T04:00:03.212Z,0
2018-09-15T04:05:03.329Z,0
2018-09-15T04:10:02.963Z,0
2018-09-15T04:15:02.620Z,0
2018-09-15T04:20:03.300Z,0
2018-09-15T04:25:02.856Z,0
2018-09-15T04:30:03.343Z,0
2018-09-15T04:35:02.872Z,1
2018-09-15T04:40:02.659Z,2
2018-09-15T04:45:03.337Z,6
2018-09-15T04:50:02.976Z,21
2018-09-15T04:55:02.692Z,40
2018-09-15T05:00:03.385Z,56
2018-09-15T05:05:03.022Z,76
2018-09-15T05:10:02.765Z,147
2018-09-15T05:15:03.338Z,273
2018-09-15T05:20:02.953Z,330
2018-09-15T05:25:02.644Z,550
2018-09-15T05:30:03.335Z,682
2018-09-15T05:35:03.013Z,781
2018-09-15T05:40:02.994Z,929
2018-09-15T05:45:03.023Z,1000
2018-09-15T05:50:02.828Z,1000
2018-09-15T05:55:02.529Z,1000
2018-09-15T06:00:03.203Z,1000
2018-09-15T06:05:02.871Z,2000
2018-09-15T06:10:02.702Z,1000
2018-09-15T06:15:03.369Z,1000
2018-09-15T06:20:02.966Z,1000
2018-09-15T06:25:02.540Z,1000
2018-09-15T06:30:03.243Z,2000
2018-09-15T06:35:02.775Z,2000
2018-09-15T06:40:02.463Z,2000
2018-09-15T06:45:03.173Z,2000
2018-09-15T06:50:02.744Z,3000
2018-09-15T06:55:03.408Z,3000
2018-09-15T07:00:02.985Z,4000
2018-09-15T07:05:02.742Z,4000
2018-09-15T07:10:02.475Z,3000
2018-09-15T07:15:03.058Z,4000
2018-09-15T07:20:02.840Z,4000
2018-09-15T07:25:02.838Z,4000
2018-09-15T07:30:02.425Z,5000
2018-09-15T07:35:03.257Z,6000
2018-09-15T07:40:02.861Z,7000
2018-09-15T07:45:02.492Z,7000
2018-09-15T07:50:03.427Z,8000
2018-09-15T07:55:02.991Z,8000
2018-09-15T08:00:02.589Z,8000
2018-09-15T08:05:03.278Z,8000
2018-09-15T08:10:02.867Z,11000
2018-09-15T08:15:02.516Z,9000
2018-09-15T08:20:03.273Z,15000
2018-09-15T08:25:02.874Z,42000
2018-09-15T08:30:02.944Z,33000
2018-09-15T08:35:02.625Z,19000
2018-09-15T08:40:03.369Z,40000
2018-09-15T08:45:02.930Z,39000
2018-09-15T08:50:02.660Z,40000
2018-09-15T08:55:03.232Z,39000
2018-09-15T09:00:02.770Z,37000
2018-09-15T09:05:02.398Z,38000
2018-09-15T09:10:03.213Z,11000
2018-09-15T09:15:02.899Z,55000
2018-09-15T09:20:02.853Z,14000
2018-09-15T09:25:02.921Z,12000
2018-09-15T09:30:02.600Z,5000
2018-09-15T09:35:03.245Z,8000
2018-09-15T09:40:02.918Z,10000
2018-09-15T09:45:02.714Z,8000
2018-09-15T09:50:03.284Z,12000
2018-09-15T09:55:02.931Z,4000
2018-09-15T10:05:02.767Z,28000
2018-09-15T10:10:03.346Z,10000
2018-09-15T10:15:02.948Z,3000
2018-09-15T10:20:02.564Z,2000
2018-09-15T10:25:03.271Z,1000
2018-09-15T10:30:02.866Z,1000
2018-09-15T10:35:02.509Z,1000
2018-09-15T10:40:03.198Z,1000
2018-09-15T10:45:02.766Z,2000
2018-09-15T10:50:02.350Z,3000
2018-09-15T10:55:02.993Z,4000
2018-09-15T11:00:02.711Z,5000
2018-09-15T11:05:03.369Z,6000
2018-09-15T11:10:03.189Z,6000
2018-09-15T11:15:02.820Z,7000
2018-09-15T11:20:02.486Z,7000
2018-09-15T11:25:02.980Z,8000
2018-09-15T11:30:02.647Z,8000
2018-09-15T11:35:03.244Z,8000
2018-09-15T11:40:02.985Z,54000
2018-09-15T11:45:02.735Z,31000
2018-09-15T11:50:03.312Z,15000
2018-09-15T11:55:02.839Z,6000
2018-09-15T12:00:02.990Z,4000
2018-09-15T12:05:03.064Z,6000
2018-09-15T12:10:02.719Z,6000
2018-09-15T12:15:02.411Z,31000
2018-09-15T12:20:03.103Z,19000
2018-09-15T12:25:02.604Z,26000
2018-09-15T12:30:03.209Z,9000
2018-09-15T12:35:02.774Z,11000
2018-09-15T12:40:02.468Z,13000
2018-09-15T12:45:03.279Z,9000
2018-09-15T12:50:02.439Z,9000
2018-09-15T12:55:03.006Z,8000
2018-09-15T13:00:02.683Z,8000
2018-09-15T13:05:03.388Z,7000
2018-09-15T13:10:03.174Z,6000
2018-09-15T13:15:02.737Z,7000
2018-09-15T13:20:02.392Z,7000
2018-09-15T13:25:02.977Z,34000
2018-09-15T13:30:02.768Z,34000
2018-09-15T13:35:02.406Z,34000
2018-09-15T13:40:03.270Z,12000
2018-09-15T13:45:02.912Z,9000
2018-09-15T13:50:02.580Z,7000
2018-09-15T13:55:03.227Z,8000
2018-09-15T14:00:02.919Z,6000
2018-09-15T14:05:02.642Z,4000
2018-09-15T14:10:07.473Z,3000
2018-09-15T14:15:02.954Z,3000
2018-09-15T14:20:02.465Z,2000
2018-09-15T14:25:03.182Z,2000
2018-09-15T14:30:02.821Z,4000
2018-09-15T14:35:02.697Z,4000
2018-09-15T14:40:02.625Z,4000
2018-09-15T14:45:03.179Z,4000
2018-09-15T14:50:02.843Z,4000
2018-09-15T14:55:02.627Z,5000
2018-09-15T15:00:03.327Z,24000
2018-09-15T15:05:02.916Z,16000
2018-09-15T15:10:02.532Z,11000
2018-09-15T15:15:03.276Z,25000
2018-09-15T15:20:02.890Z,5000
2018-09-15T15:25:02.601Z,4000
2018-09-15T15:30:03.341Z,5000
2018-09-15T15:35:03.021Z,3000
2018-09-15T15:40:02.795Z,3000
2018-09-15T15:45:02.435Z,3000
2018-09-15T15:50:03.237Z,3000
2018-09-15T15:55:02.887Z,2000
2018-09-15T16:00:02.592Z,2000
2018-09-15T16:05:03.234Z,2000
2018-09-15T16:10:02.915Z,1000
2018-09-15T16:15:02.566Z,1000
2018-09-15T16:20:03.026Z,1000
2018-09-15T16:25:02.665Z,1000
2018-09-15T16:30:03.332Z,1000
2018-09-15T16:35:03.013Z,1000
2018-09-15T16:40:02.741Z,1000
2018-09-15T16:45:02.450Z,1000
2018-09-15T16:50:03.089Z,1000
2018-09-15T16:55:02.683Z,1000
2018-09-15T17:00:03.172Z,2000
2018-09-15T17:05:02.738Z,1000
2018-09-15T17:10:02.731Z,1000
2018-09-15T17:15:02.615Z,1000
2018-09-15T17:20:03.273Z,903
2018-09-15T17:25:02.733Z,760
2018-09-15T17:30:02.443Z,642
2018-09-15T17:35:03.034Z,381
2018-09-15T17:40:02.719Z,251
2018-09-15T17:45:03.334Z,121
2018-09-15T17:50:03.053Z,62
2018-09-15T17:55:02.779Z,52
2018-09-15T18:00:03.086Z,43
2018-09-15T18:05:02.760Z,31
2018-09-15T18:10:02.635Z,13
2018-09-15T18:15:02.954Z,6
2018-09-15T18:20:03.009Z,2
2018-09-15T18:25:02.683Z,1
2018-09-15T18:30:02.421Z,0
2018-09-15T18:35:02.894Z,0
2018-09-15T18:40:02.588Z,0
2018-09-15T18:45:03.208Z,0
2018-09-15T18:50:02.853Z,0
2018-09-15T18:55:02.471Z,0
2018-09-15T19:00:03.250Z,0
2018-09-15T19:05:02.857Z,0
2018-09-15T19:10:02.834Z,0
2018-09-15T19:15:02.497Z,0
2018-09-15T19:20:03.260Z,0
2018-09-15T19:25:02.767Z,0
2018-09-15T19:30:02.500Z,0
2018-09-15T19:35:03.175Z,0
2018-09-15T19:40:02.755Z,0
2018-09-15T19:45:02.371Z,0
2018-09-15T19:50:03.053Z,0
2018-09-15T19:55:02.744Z,0
2018-09-15T20:00:03.775Z,0
2018-09-15T20:05:02.369Z,0
2018-09-15T20:10:03.108Z,0
2018-09-15T20:15:02.732Z,0
2018-09-15T20:20:03.708Z,0
2018-09-15T20:25:03.360Z,0
2018-09-15T20:30:03.071Z,0
2018-09-15T20:35:02.715Z,0
2018-09-15T20:40:03.391Z,0
2018-09-15T20:45:02.915Z,0
2018-09-15T20:50:02.641Z,0
2018-09-15T20:55:03.174Z,0
2018-09-15T21:00:02.811Z,0
2018-09-15T21:05:02.450Z,0
2018-09-15T21:10:03.187Z,0
2018-09-15T21:15:02.827Z,0
2018-09-15T21:20:02.573Z,0
2018-09-15T21:25:03.200Z,0
2018-09-15T21:30:03.182Z,0
2018-09-15T21:35:03.023Z,0
2018-09-15T21:40:03.041Z,0
2018-09-15T21:45:02.663Z,0
2018-09-15T21:50:03.260Z,0
2018-09-15T21:55:02.864Z,0
2018-09-15T22:00:02.501Z,0
2018-09-15T22:05:03.155Z,0
2018-09-15T22:10:02.775Z,0
2018-09-15T22:15:02.413Z,0
2018-09-15T22:20:03.085Z,0
2018-09-15T22:25:02.688Z,0
2018-09-15T22:30:03.348Z,0
2018-09-15T22:35:02.969Z,0
2018-09-15T22:40:02.641Z,0
2018-09-15T22:45:03.335Z,0
2018-09-15T22:50:02.849Z,0
2018-09-15T22:55:02.453Z,0
2018-09-15T23:00:03.191Z,0
2018-09-15T23:05:03.411Z,0
2018-09-15T23:10:03.178Z,0
2018-09-15T23:15:02.767Z,0
2018-09-15T23:20:02.454Z,0
2018-09-15T23:25:03.019Z,0
2018-09-15T23:30:02.626Z,0
2018-09-15T23:35:03.249Z,0
2018-09-15T23:40:02.777Z,0
2018-09-15T23:45:02.472Z,0
2018-09-15T23:50:03.011Z,0
2018-09-15T23:55:02.963Z,0
